sensor_id;sensor_type;location;lat;lon;timestamp;pressure;altitude;pressure_sealevel;temperature;humidity
31299;BME280;17927;52.350;13.402;2023-04-04T00:00:46;102657.72;;;5.85;43.25
31299;BME280;17927;52.350;13.402;2023-04-04T00:03:11;102662.31;;;5.83;43.37
31299;BME280;17927;52.350;13.402;2023-04-04T00:05:36;102658.84;;;5.79;43.37
31299;BME280;17927;52.350;13.402;2023-04-04T00:08:05;102652.69;;;5.77;43.46
31299;BME280;17927;52.350;13.402;2023-04-04T00:10:30;102652.88;;;5.72;43.50
31299;BME280;17927;52.350;13.402;2023-04-04T00:12:55;102655.69;;;5.69;43.54
31299;BME280;17927;52.350;13.402;2023-04-04T00:15:21;102657.59;;;5.67;43.61
31299;BME280;17927;52.350;13.402;2023-04-04T00:17:46;102659.47;;;5.65;43.56
31299;BME280;17927;52.350;13.402;2023-04-04T00:20:11;102663.19;;;5.61;43.39
31299;BME280;17927;52.350;13.402;2023-04-04T00:22:36;102654.34;;;5.59;43.61
31299;BME280;17927;52.350;13.402;2023-04-04T00:25:02;102649.09;;;5.56;43.60
31299;BME280;17927;52.350;13.402;2023-04-04T00:27:27;102658.97;;;5.55;43.58
31299;BME280;17927;52.350;13.402;2023-04-04T00:29:52;102654.66;;;5.51;43.73
31299;BME280;17927;52.350;13.402;2023-04-04T00:32:18;102656.47;;;5.51;43.74
31299;BME280;17927;52.350;13.402;2023-04-04T00:34:43;102660.13;;;5.48;43.86
31299;BME280;17927;52.350;13.402;2023-04-04T00:37:08;102655.78;;;5.45;43.65
31299;BME280;17927;52.350;13.402;2023-04-04T00:39:36;102656.78;;;5.43;43.90
31299;BME280;17927;52.350;13.402;2023-04-04T00:42:01;102662.28;;;5.40;43.93
31299;BME280;17927;52.350;13.402;2023-04-04T00:44:26;102654.34;;;5.37;43.84
31299;BME280;17927;52.350;13.402;2023-04-04T00:46:52;102655.28;;;5.36;44.03
31299;BME280;17927;52.350;13.402;2023-04-04T00:49:17;102658.97;;;5.33;43.98
31299;BME280;17927;52.350;13.402;2023-04-04T00:51:42;102651.91;;;5.30;43.97
31299;BME280;17927;52.350;13.402;2023-04-04T00:54:07;102649.31;;;5.29;43.94
31299;BME280;17927;52.350;13.402;2023-04-04T00:56:36;102648.50;;;5.27;43.96
31299;BME280;17927;52.350;13.402;2023-04-04T00:59:02;102657.47;;;5.26;44.03
31299;BME280;17927;52.350;13.402;2023-04-04T01:01:28;102643.31;;;5.22;44.03
31299;BME280;17927;52.350;13.402;2023-04-04T01:03:55;102645.09;;;5.22;44.14
31299;BME280;17927;52.350;13.402;2023-04-04T01:06:21;102648.75;;;5.21;44.08
31299;BME280;17927;52.350;13.402;2023-04-04T01:08:47;102645.31;;;5.17;44.21
31299;BME280;17927;52.350;13.402;2023-04-04T01:11:13;102649.84;;;5.15;44.30
31299;BME280;17927;52.350;13.402;2023-04-04T01:13:39;102645.41;;;5.14;44.35
31299;BME280;17927;52.350;13.402;2023-04-04T01:16:05;102645.56;;;5.11;44.57
31299;BME280;17927;52.350;13.402;2023-04-04T01:18:30;102650.97;;;5.09;44.23
31299;BME280;17927;52.350;13.402;2023-04-04T01:21:02;102647.47;;;5.07;44.37
31299;BME280;17927;52.350;13.402;2023-04-04T01:26:15;102642.31;;;5.02;44.27
31299;BME280;17927;52.350;13.402;2023-04-04T01:28:40;102636.09;;;5.02;44.46
31299;BME280;17927;52.350;13.402;2023-04-04T01:31:07;102630.72;;;5.02;44.40
31299;BME280;17927;52.350;13.402;2023-04-04T01:33:39;102632.47;;;5.03;44.35
31299;BME280;17927;52.350;13.402;2023-04-04T01:36:50;102630.72;;;5.02;44.50
31299;BME280;17927;52.350;13.402;2023-04-04T01:39:24;102632.69;;;4.97;44.40
31299;BME280;17927;52.350;13.402;2023-04-04T01:41:53;102627.34;;;4.97;44.52
31299;BME280;17927;52.350;13.402;2023-04-04T01:44:20;102625.59;;;4.96;44.46
31299;BME280;17927;52.350;13.402;2023-04-04T01:46:51;102627.47;;;4.94;44.41
31299;BME280;17927;52.350;13.402;2023-04-04T01:49:17;102618.59;;;4.92;44.52
31299;BME280;17927;52.350;13.402;2023-04-04T01:51:43;102620.50;;;4.90;44.49
31299;BME280;17927;52.350;13.402;2023-04-04T01:54:08;102617.00;;;4.87;44.48
31299;BME280;17927;52.350;13.402;2023-04-04T01:56:34;102614.38;;;4.86;44.35
31299;BME280;17927;52.350;13.402;2023-04-04T01:58:59;102613.53;;;4.84;44.67
31299;BME280;17927;52.350;13.402;2023-04-04T02:01:25;102619.91;;;4.81;44.92
31299;BME280;17927;52.350;13.402;2023-04-04T02:03:50;102612.81;;;4.80;44.71
31299;BME280;17927;52.350;13.402;2023-04-04T02:06:15;102607.53;;;4.79;44.56
31299;BME280;17927;52.350;13.402;2023-04-04T02:08:41;102614.78;;;4.75;44.77
31299;BME280;17927;52.350;13.402;2023-04-04T02:11:07;102614.84;;;4.73;44.88
31299;BME280;17927;52.350;13.402;2023-04-04T02:13:32;102610.44;;;4.72;44.74
31299;BME280;17927;52.350;13.402;2023-04-04T02:15:57;102605.16;;;4.71;44.69
31299;BME280;17927;52.350;13.402;2023-04-04T02:18:22;102605.16;;;4.71;44.74
31299;BME280;17927;52.350;13.402;2023-04-04T02:20:54;102605.19;;;4.69;44.94
31299;BME280;17927;52.350;13.402;2023-04-04T02:23:20;102598.97;;;4.69;44.90
31299;BME280;17927;52.350;13.402;2023-04-04T02:25:45;102590.97;;;4.67;44.85
31299;BME280;17927;52.350;13.402;2023-04-04T02:28:13;102596.41;;;4.66;44.96
31299;BME280;17927;52.350;13.402;2023-04-04T02:30:38;102605.38;;;4.65;44.84
31299;BME280;17927;52.350;13.402;2023-04-04T02:33:04;102592.97;;;4.62;44.70
31299;BME280;17927;52.350;13.402;2023-04-04T02:35:29;102599.31;;;4.60;44.91
31299;BME280;17927;52.350;13.402;2023-04-04T02:37:54;102599.44;;;4.56;44.96
31299;BME280;17927;52.350;13.402;2023-04-04T02:40:20;102596.88;;;4.53;44.88
31299;BME280;17927;52.350;13.402;2023-04-04T02:42:45;102597.88;;;4.51;44.71
31299;BME280;17927;52.350;13.402;2023-04-04T02:45:10;102589.06;;;4.47;44.92
31299;BME280;17927;52.350;13.402;2023-04-04T02:47:38;102596.28;;;4.45;44.95
31299;BME280;17927;52.350;13.402;2023-04-04T02:50:03;102588.44;;;4.40;45.17
31299;BME280;17927;52.350;13.402;2023-04-04T02:52:29;102581.41;;;4.38;45.01
31299;BME280;17927;52.350;13.402;2023-04-04T02:54:54;102579.66;;;4.37;45.02
31299;BME280;17927;52.350;13.402;2023-04-04T02:57:19;102584.25;;;4.33;45.22
31299;BME280;17927;52.350;13.402;2023-04-04T02:59:45;102585.22;;;4.31;45.47
31299;BME280;17927;52.350;13.402;2023-04-04T03:02:10;102572.84;;;4.28;45.05
31299;BME280;17927;52.350;13.402;2023-04-04T03:04:35;102585.47;;;4.24;45.17
31299;BME280;17927;52.350;13.402;2023-04-04T03:07:01;102575.81;;;4.20;45.19
31299;BME280;17927;52.350;13.402;2023-04-04T03:09:28;102575.91;;;4.17;44.91
31299;BME280;17927;52.350;13.402;2023-04-04T03:11:53;102572.41;;;4.15;45.31
31299;BME280;17927;52.350;13.402;2023-04-04T03:14:18;102565.47;;;4.11;45.35
31299;BME280;17927;52.350;13.402;2023-04-04T03:16:44;102561.97;;;4.09;45.38
31299;BME280;17927;52.350;13.402;2023-04-04T03:19:09;102560.25;;;4.06;45.23
31299;BME280;17927;52.350;13.402;2023-04-04T03:21:34;102561.25;;;4.04;45.19
31299;BME280;17927;52.350;13.402;2023-04-04T03:24:00;102560.50;;;4.00;45.28
31299;BME280;17927;52.350;13.402;2023-04-04T03:26:25;102556.25;;;3.94;45.20
31299;BME280;17927;52.350;13.402;2023-04-04T03:28:52;102560.78;;;3.92;45.17
31299;BME280;17927;52.350;13.402;2023-04-04T03:31:17;102555.59;;;3.88;45.19
31299;BME280;17927;52.350;13.402;2023-04-04T03:33:42;102559.28;;;3.84;45.19
31299;BME280;17927;52.350;13.402;2023-04-04T03:36:10;102563.75;;;3.83;45.17
31299;BME280;17927;52.350;13.402;2023-04-04T03:38:36;102556.78;;;3.79;45.24
31299;BME280;17927;52.350;13.402;2023-04-04T03:41:02;102555.97;;;3.77;45.16
31299;BME280;17927;52.350;13.402;2023-04-04T03:43:29;102554.25;;;3.74;45.17
31299;BME280;17927;52.350;13.402;2023-04-04T03:45:59;102556.19;;;3.71;45.32
31299;BME280;17927;52.350;13.402;2023-04-04T03:48:24;102547.34;;;3.69;45.35
31299;BME280;17927;52.350;13.402;2023-04-04T03:50:49;102545.59;;;3.68;45.30
31299;BME280;17927;52.350;13.402;2023-04-04T03:53:15;102548.31;;;3.66;45.28
31299;BME280;17927;52.350;13.402;2023-04-04T03:55:40;102543.91;;;3.65;45.34
31299;BME280;17927;52.350;13.402;2023-04-04T03:58:08;102534.19;;;3.62;45.32
31299;BME280;17927;52.350;13.402;2023-04-04T04:00:33;102530.72;;;3.60;45.31
31299;BME280;17927;52.350;13.402;2023-04-04T04:02:59;102532.50;;;3.60;45.46
31299;BME280;17927;52.350;13.402;2023-04-04T04:05:24;102526.28;;;3.59;45.79
31299;BME280;17927;52.350;13.402;2023-04-04T04:07:49;102524.53;;;3.58;45.55
31299;BME280;17927;52.350;13.402;2023-04-04T04:10:16;102529.81;;;3.60;45.61
31299;BME280;17927;52.350;13.402;2023-04-04T04:12:42;102535.22;;;3.58;45.72
31299;BME280;17927;52.350;13.402;2023-04-04T04:15:07;102532.56;;;3.58;45.66
31299;BME280;17927;52.350;13.402;2023-04-04T04:17:33;102536.06;;;3.60;45.81
31299;BME280;17927;52.350;13.402;2023-04-04T04:19:58;102534.25;;;3.61;45.71
31299;BME280;17927;52.350;13.402;2023-04-04T04:22:23;102537.84;;;3.60;45.72
31299;BME280;17927;52.350;13.402;2023-04-04T04:24:48;102533.41;;;3.59;45.71
31299;BME280;17927;52.350;13.402;2023-04-04T04:27:14;102541.44;;;3.59;45.73
31299;BME280;17927;52.350;13.402;2023-04-04T04:29:39;102534.38;;;3.58;45.78
31299;BME280;17927;52.350;13.402;2023-04-04T04:32:04;102542.44;;;3.56;45.72
31299;BME280;17927;52.350;13.402;2023-04-04T04:34:30;102539.81;;;3.55;45.88
31299;BME280;17927;52.350;13.402;2023-04-04T04:36:55;102540.69;;;3.55;45.82
31299;BME280;17927;52.350;13.402;2023-04-04T04:39:28;102546.00;;;3.57;46.17
31299;BME280;17927;52.350;13.402;2023-04-04T04:41:53;102548.69;;;3.55;45.98
31299;BME280;17927;52.350;13.402;2023-04-04T04:44:18;102548.69;;;3.55;46.09
31299;BME280;17927;52.350;13.402;2023-04-04T04:46:43;102536.31;;;3.53;46.21
31299;BME280;17927;52.350;13.402;2023-04-04T04:49:09;102542.50;;;3.55;46.36
31299;BME280;17927;52.350;13.402;2023-04-04T04:51:34;102546.91;;;3.56;46.25
31299;BME280;17927;52.350;13.402;2023-04-04T04:53:59;102544.25;;;3.56;46.37
31299;BME280;17927;52.350;13.402;2023-04-04T04:56:24;102541.50;;;3.57;46.61
31299;BME280;17927;52.350;13.402;2023-04-04T04:58:49;102549.34;;;3.62;46.54
31299;BME280;17927;52.350;13.402;2023-04-04T05:01:15;102561.75;;;3.64;46.50
31299;BME280;17927;52.350;13.402;2023-04-04T05:03:40;102544.72;;;3.67;46.57
31299;BME280;17927;52.350;13.402;2023-04-04T05:06:05;102550.91;;;3.69;46.69
31299;BME280;17927;52.350;13.402;2023-04-04T05:08:31;102551.66;;;3.73;46.76
31299;BME280;17927;52.350;13.402;2023-04-04T05:10:56;102557.72;;;3.78;46.81
31299;BME280;17927;52.350;13.402;2023-04-04T05:13:21;102553.94;;;3.84;46.77
31299;BME280;17927;52.350;13.402;2023-04-04T05:15:47;102561.72;;;3.90;46.84
31299;BME280;17927;52.350;13.402;2023-04-04T05:18:12;102558.78;;;3.97;46.94
31299;BME280;17927;52.350;13.402;2023-04-04T05:20:38;102572.66;;;4.09;47.08
31299;BME280;17927;52.350;13.402;2023-04-04T05:23:04;102566.84;;;4.21;46.95
31299;BME280;17927;52.350;13.402;2023-04-04T05:25:30;102574.47;;;4.32;46.85
31299;BME280;17927;52.350;13.402;2023-04-04T05:27:55;102578.53;;;4.42;46.91
31299;BME280;17927;52.350;13.402;2023-04-04T05:30:21;102581.75;;;4.52;46.93
31299;BME280;17927;52.350;13.402;2023-04-04T05:32:50;102581.34;;;4.63;46.85
31299;BME280;17927;52.350;13.402;2023-04-04T05:35:15;102573.00;;;4.71;46.99
31299;BME280;17927;52.350;13.402;2023-04-04T05:37:40;102577.06;;;4.81;47.07
31299;BME280;17927;52.350;13.402;2023-04-04T05:40:06;102582.94;;;4.91;46.93
31299;BME280;17927;52.350;13.402;2023-04-04T05:42:32;102577.16;;;5.02;47.20
31299;BME280;17927;52.350;13.402;2023-04-04T05:44:57;102581.09;;;5.14;47.24
31299;BME280;17927;52.350;13.402;2023-04-04T05:47:22;102574.38;;;5.26;47.00
31299;BME280;17927;52.350;13.402;2023-04-04T05:49:50;102578.28;;;5.39;47.14
31299;BME280;17927;52.350;13.402;2023-04-04T05:52:16;102578.72;;;5.51;46.97
31299;BME280;17927;52.350;13.402;2023-04-04T05:54:41;102587.09;;;5.63;46.96
31299;BME280;17927;52.350;13.402;2023-04-04T05:57:06;102580.34;;;5.75;46.86
31299;BME280;17927;52.350;13.402;2023-04-04T05:59:32;102586.06;;;5.88;46.73
31299;BME280;17927;52.350;13.402;2023-04-04T06:01:57;102591.84;;;6.00;46.53
31299;BME280;17927;52.350;13.402;2023-04-04T06:04:23;102583.25;;;6.12;46.42
31299;BME280;17927;52.350;13.402;2023-04-04T06:06:48;102580.94;;;6.23;46.34
31299;BME280;17927;52.350;13.402;2023-04-04T06:09:13;102585.81;;;6.34;46.32
31299;BME280;17927;52.350;13.402;2023-04-04T06:11:38;102580.84;;;6.46;46.15
31299;BME280;17927;52.350;13.402;2023-04-04T06:14:04;102571.31;;;6.58;46.13
31299;BME280;17927;52.350;13.402;2023-04-04T06:16:30;102578.00;;;6.68;46.02
31299;BME280;17927;52.350;13.402;2023-04-04T06:18:55;102582.00;;;6.78;46.16
31299;BME280;17927;52.350;13.402;2023-04-04T06:21:20;102577.06;;;6.88;45.98
31299;BME280;17927;52.350;13.402;2023-04-04T06:23:46;102582.78;;;6.99;45.77
31299;BME280;17927;52.350;13.402;2023-04-04T06:26:11;102587.69;;;7.09;45.62
31299;BME280;17927;52.350;13.402;2023-04-04T06:28:36;102572.91;;;7.18;45.80
31299;BME280;17927;52.350;13.402;2023-04-04T06:31:04;102581.41;;;7.27;45.23
31299;BME280;17927;52.350;13.402;2023-04-04T06:33:29;102579.13;;;7.37;45.51
31299;BME280;17927;52.350;13.402;2023-04-04T06:35:55;102582.22;;;7.47;45.31
31299;BME280;17927;52.350;13.402;2023-04-04T06:38:20;102586.34;;;7.54;45.13
31299;BME280;17927;52.350;13.402;2023-04-04T06:40:45;102590.34;;;7.63;44.86
31299;BME280;17927;52.350;13.402;2023-04-04T06:43:11;102575.66;;;7.70;44.94
31299;BME280;17927;52.350;13.402;2023-04-04T06:45:36;102582.53;;;7.76;44.53
31299;BME280;17927;52.350;13.402;2023-04-04T06:48:01;102588.56;;;7.81;44.46
31299;BME280;17927;52.350;13.402;2023-04-04T06:50:29;102594.56;;;7.86;44.50
31299;BME280;17927;52.350;13.402;2023-04-04T06:52:59;102599.56;;;7.94;44.59
31299;BME280;17927;52.350;13.402;2023-04-04T06:55:25;102597.31;;;8.02;44.53
31299;BME280;17927;52.350;13.402;2023-04-04T06:57:51;102600.47;;;8.11;44.62
31299;BME280;17927;52.350;13.402;2023-04-04T07:00:16;102585.66;;;8.19;44.51
31299;BME280;17927;52.350;13.402;2023-04-04T07:02:41;102583.59;;;8.25;43.99
31299;BME280;17927;52.350;13.402;2023-04-04T07:05:07;102587.75;;;8.30;43.99
31299;BME280;17927;52.350;13.402;2023-04-04T07:07:32;102585.75;;;8.34;43.73
31299;BME280;17927;52.350;13.402;2023-04-04T07:09:58;102585.34;;;8.42;43.87
31299;BME280;17927;52.350;13.402;2023-04-04T07:12:23;102581.53;;;8.46;43.43
31299;BME280;17927;52.350;13.402;2023-04-04T07:14:48;102582.09;;;8.52;43.62
31299;BME280;17927;52.350;13.402;2023-04-04T07:17:13;102586.38;;;8.57;43.42
31299;BME280;17927;52.350;13.402;2023-04-04T07:19:39;102584.38;;;8.60;43.01
31299;BME280;17927;52.350;13.402;2023-04-04T07:22:04;102590.47;;;8.64;42.98
31299;BME280;17927;52.350;13.402;2023-04-04T07:24:30;102572.31;;;8.67;42.75
31299;BME280;17927;52.350;13.402;2023-04-04T07:26:55;102577.34;;;8.74;42.69
31299;BME280;17927;52.350;13.402;2023-04-04T07:29:21;102577.84;;;8.80;42.90
31299;BME280;17927;52.350;13.402;2023-04-04T07:31:46;102571.28;;;8.86;42.74
31299;BME280;17927;52.350;13.402;2023-04-04T07:34:11;102568.22;;;8.92;42.63
31299;BME280;17927;52.350;13.402;2023-04-04T07:36:37;102566.19;;;8.96;42.56
31299;BME280;17927;52.350;13.402;2023-04-04T07:39:02;102564.28;;;8.98;42.77
31299;BME280;17927;52.350;13.402;2023-04-04T07:41:27;102564.13;;;9.01;42.31
31299;BME280;17927;52.350;13.402;2023-04-04T07:43:52;102562.88;;;9.07;42.59
31299;BME280;17927;52.350;13.402;2023-04-04T07:46:18;102561.75;;;9.11;42.38
31299;BME280;17927;52.350;13.402;2023-04-04T07:48:44;102569.56;;;9.16;42.51
31299;BME280;17927;52.350;13.402;2023-04-04T07:51:09;102563.84;;;9.22;42.15
31299;BME280;17927;52.350;13.402;2023-04-04T07:53:34;102575.19;;;9.27;42.19
31299;BME280;17927;52.350;13.402;2023-04-04T07:56:00;102564.25;;;9.30;42.13
31299;BME280;17927;52.350;13.402;2023-04-04T07:58:34;102565.97;;;9.31;41.78
31299;BME280;17927;52.350;13.402;2023-04-04T08:01:00;102555.81;;;9.36;41.65
31299;BME280;17927;52.350;13.402;2023-04-04T08:03:25;102557.94;;;9.45;41.70
31299;BME280;17927;52.350;13.402;2023-04-04T08:05:51;102557.47;;;9.53;41.85
31299;BME280;17927;52.350;13.402;2023-04-04T08:08:16;102555.19;;;9.62;41.70
31299;BME280;17927;52.350;13.402;2023-04-04T08:10:43;102552.03;;;9.69;41.53
31299;BME280;17927;52.350;13.402;2023-04-04T08:13:09;102553.50;;;9.75;41.64
31299;BME280;17927;52.350;13.402;2023-04-04T08:15:34;102545.88;;;9.82;41.30
31299;BME280;17927;52.350;13.402;2023-04-04T08:18:00;102556.22;;;9.89;41.07
31299;BME280;17927;52.350;13.402;2023-04-04T08:20:25;102546.88;;;9.95;41.10
31299;BME280;17927;52.350;13.402;2023-04-04T08:22:52;102545.59;;;10.01;41.25
31299;BME280;17927;52.350;13.402;2023-04-04T08:25:17;102537.31;;;10.04;41.07
31299;BME280;17927;52.350;13.402;2023-04-04T08:27:42;102544.34;;;10.06;41.04
31299;BME280;17927;52.350;13.402;2023-04-04T08:30:09;102530.66;;;10.10;40.58
31299;BME280;17927;52.350;13.402;2023-04-04T08:32:35;102535.88;;;10.13;40.37
31299;BME280;17927;52.350;13.402;2023-04-04T08:35:00;102538.38;;;10.16;40.47
31299;BME280;17927;52.350;13.402;2023-04-04T08:37:25;102529.22;;;10.18;40.27
31299;BME280;17927;52.350;13.402;2023-04-04T08:39:51;102536.25;;;10.21;40.56
31299;BME280;17927;52.350;13.402;2023-04-04T08:42:17;102539.66;;;10.25;40.41
31299;BME280;17927;52.350;13.402;2023-04-04T08:44:44;102535.69;;;10.30;40.07
31299;BME280;17927;52.350;13.402;2023-04-04T08:47:12;102540.78;;;10.35;39.68
31299;BME280;17927;52.350;13.402;2023-04-04T08:49:42;102527.91;;;10.40;39.78
31299;BME280;17927;52.350;13.402;2023-04-04T08:52:11;102527.66;;;10.43;39.76
31299;BME280;17927;52.350;13.402;2023-04-04T08:54:37;102529.13;;;10.49;39.33
31299;BME280;17927;52.350;13.402;2023-04-04T08:57:03;102526.13;;;10.54;39.08
31299;BME280;17927;52.350;13.402;2023-04-04T08:59:29;102534.03;;;10.57;39.14
31299;BME280;17927;52.350;13.402;2023-04-04T09:04:36;102521.31;;;10.59;38.88
31299;BME280;17927;52.350;13.402;2023-04-04T09:07:04;102522.75;;;10.64;38.89
31299;BME280;17927;52.350;13.402;2023-04-04T09:09:32;102515.28;;;10.68;38.85
31299;BME280;17927;52.350;13.402;2023-04-04T09:11:59;102522.00;;;10.75;38.64
31299;BME280;17927;52.350;13.402;2023-04-04T09:14:25;102527.91;;;10.82;38.88
31299;BME280;17927;52.350;13.402;2023-04-04T09:16:51;102522.06;;;10.88;38.33
31299;BME280;17927;52.350;13.402;2023-04-04T09:19:17;102517.56;;;10.89;38.21
31299;BME280;17927;52.350;13.402;2023-04-04T09:21:46;102513.88;;;10.90;38.01
31299;BME280;17927;52.350;13.402;2023-04-04T09:24:11;102510.41;;;10.88;38.19
31299;BME280;17927;52.350;13.402;2023-04-04T09:26:51;102513.19;;;10.86;37.81
31299;BME280;17927;52.350;13.402;2023-04-04T09:29:20;102505.97;;;10.87;38.00
31299;BME280;17927;52.350;13.402;2023-04-04T09:31:49;102508.34;;;10.91;38.19
31299;BME280;17927;52.350;13.402;2023-04-04T09:34:16;102499.72;;;10.99;37.77
31299;BME280;17927;52.350;13.402;2023-04-04T09:36:43;102499.34;;;11.05;38.24
31299;BME280;17927;52.350;13.402;2023-04-04T09:39:09;102505.28;;;11.10;38.02
31299;BME280;17927;52.350;13.402;2023-04-04T09:41:38;102500.44;;;11.16;38.06
31299;BME280;17927;52.350;13.402;2023-04-04T09:44:04;102499.03;;;11.23;37.95
31299;BME280;17927;52.350;13.402;2023-04-04T09:46:31;102507.38;;;11.33;38.04
31299;BME280;17927;52.350;13.402;2023-04-04T09:48:59;102503.38;;;11.38;37.69
31299;BME280;17927;52.350;13.402;2023-04-04T09:51:32;102510.31;;;11.42;37.16
31299;BME280;17927;52.350;13.402;2023-04-04T09:53:58;102512.19;;;11.42;37.37
31299;BME280;17927;52.350;13.402;2023-04-04T09:56:25;102507.06;;;11.37;37.17
31299;BME280;17927;52.350;13.402;2023-04-04T09:58:51;102501.00;;;11.34;36.92
31299;BME280;17927;52.350;13.402;2023-04-04T10:01:16;102502.94;;;11.32;37.18
31299;BME280;17927;52.350;13.402;2023-04-04T10:03:42;102494.63;;;11.35;37.18
31299;BME280;17927;52.350;13.402;2023-04-04T10:06:08;102491.38;;;11.42;37.34
31299;BME280;17927;52.350;13.402;2023-04-04T10:08:39;102495.63;;;11.47;37.00
31299;BME280;17927;52.350;13.402;2023-04-04T10:11:05;102487.38;;;11.48;36.96
31299;BME280;17927;52.350;13.402;2023-04-04T10:13:33;102488.91;;;11.52;37.14
31299;BME280;17927;52.350;13.402;2023-04-04T10:16:00;102491.28;;;11.57;36.82
31299;BME280;17927;52.350;13.402;2023-04-04T10:18:27;102491.63;;;11.65;36.62
31299;BME280;17927;52.350;13.402;2023-04-04T10:20:58;102485.69;;;11.73;36.68
31299;BME280;17927;52.350;13.402;2023-04-04T10:23:25;102482.19;;;11.84;36.67
31299;BME280;17927;52.350;13.402;2023-04-04T10:25:55;102481.44;;;11.95;36.63
31299;BME280;17927;52.350;13.402;2023-04-04T10:28:20;102478.97;;;12.05;36.77
31299;BME280;17927;52.350;13.402;2023-04-04T10:30:56;102477.31;;;12.15;36.23
31299;BME280;17927;52.350;13.402;2023-04-04T10:36:23;102475.34;;;12.17;36.19
31299;BME280;17927;52.350;13.402;2023-04-04T10:41:40;102478.59;;;12.22;36.06
31299;BME280;17927;52.350;13.402;2023-04-04T10:44:12;102474.50;;;12.29;36.22
31299;BME280;17927;52.350;13.402;2023-04-04T10:46:40;102478.59;;;12.35;35.95
31299;BME280;17927;52.350;13.402;2023-04-04T10:49:07;102477.28;;;12.41;35.76
31299;BME280;17927;52.350;13.402;2023-04-04T10:51:33;102474.44;;;12.42;35.73
31299;BME280;17927;52.350;13.402;2023-04-04T10:53:58;102466.94;;;12.46;35.68
31299;BME280;17927;52.350;13.402;2023-04-04T10:56:24;102471.16;;;12.50;35.89
31299;BME280;17927;52.350;13.402;2023-04-04T10:58:50;102463.66;;;12.54;35.57
31299;BME280;17927;52.350;13.402;2023-04-04T11:01:15;102462.44;;;12.58;35.60
31299;BME280;17927;52.350;13.402;2023-04-04T11:04:19;102445.72;;;12.64;35.07
31299;BME280;17927;52.350;13.402;2023-04-04T11:07:08;102442.81;;;12.67;35.67
31299;BME280;17927;52.350;13.402;2023-04-04T11:09:55;102452.31;;;12.73;35.22
31299;BME280;17927;52.350;13.402;2023-04-04T11:12:30;102443.19;;;12.74;35.22
31299;BME280;17927;52.350;13.402;2023-04-04T11:17:56;102433.09;;;12.76;34.94
31299;BME280;17927;52.350;13.402;2023-04-04T11:20:29;102434.72;;;12.78;35.32
31299;BME280;17927;52.350;13.402;2023-04-04T11:23:09;102437.59;;;12.88;35.48
31299;BME280;17927;52.350;13.402;2023-04-04T11:25:38;102443.41;;;12.95;35.31
31299;BME280;17927;52.350;13.402;2023-04-04T11:28:14;102432.81;;;13.03;34.81
31299;BME280;17927;52.350;13.402;2023-04-04T11:41:46;102417.97;;;13.20;34.46
31299;BME280;17927;52.350;13.402;2023-04-04T11:44:13;102412.03;;;13.27;34.46
31299;BME280;17927;52.350;13.402;2023-04-04T11:46:40;102406.75;;;13.36;34.56
31299;BME280;17927;52.350;13.402;2023-04-04T11:49:06;102409.63;;;13.46;34.45
31299;BME280;17927;52.350;13.402;2023-04-04T11:51:31;102404.34;;;13.56;34.19
31299;BME280;17927;52.350;13.402;2023-04-04T11:53:57;102396.72;;;13.61;33.95
31299;BME280;17927;52.350;13.402;2023-04-04T11:56:22;102397.19;;;13.66;33.71
31299;BME280;17927;52.350;13.402;2023-04-04T11:58:49;102382.88;;;13.76;33.59
31299;BME280;17927;52.350;13.402;2023-04-04T12:01:15;102380.28;;;13.85;33.77
31299;BME280;17927;52.350;13.402;2023-04-04T12:03:40;102376.81;;;13.95;34.00
31299;BME280;17927;52.350;13.402;2023-04-04T12:06:06;102381.34;;;14.06;33.87
31299;BME280;17927;52.350;13.402;2023-04-04T12:08:31;102379.25;;;14.09;33.39
31299;BME280;17927;52.350;13.402;2023-04-04T12:11:03;102379.25;;;14.09;32.69
31299;BME280;17927;52.350;13.402;2023-04-04T12:13:31;102370.59;;;14.04;32.76
31299;BME280;17927;52.350;13.402;2023-04-04T12:15:57;102371.97;;;13.98;32.84
31299;BME280;17927;52.350;13.402;2023-04-04T12:18:22;102372.22;;;13.95;32.89
31299;BME280;17927;52.350;13.402;2023-04-04T12:20:50;102367.03;;;14.04;33.17
31299;BME280;17927;52.350;13.402;2023-04-04T12:23:16;102365.03;;;14.17;33.37
31299;BME280;17927;52.350;13.402;2023-04-04T12:25:41;102361.38;;;14.39;33.73
31299;BME280;17927;52.350;13.402;2023-04-04T12:28:08;102358.69;;;14.60;33.41
31299;BME280;17927;52.350;13.402;2023-04-04T12:30:35;102353.69;;;14.77;33.06
31299;BME280;17927;52.350;13.402;2023-04-04T12:33:00;102348.06;;;14.90;33.01
31299;BME280;17927;52.350;13.402;2023-04-04T12:35:25;102350.84;;;15.00;32.79
31299;BME280;17927;52.350;13.402;2023-04-04T12:37:56;102349.31;;;15.07;32.22
31299;BME280;17927;52.350;13.402;2023-04-04T12:40:22;102338.50;;;14.96;32.64
31299;BME280;17927;52.350;13.402;2023-04-04T12:42:48;102337.25;;;15.00;32.69
31299;BME280;17927;52.350;13.402;2023-04-04T12:45:13;102334.97;;;15.05;32.26
31299;BME280;17927;52.350;13.402;2023-04-04T12:47:53;102332.97;;;15.07;31.30
31299;BME280;17927;52.350;13.402;2023-04-04T12:50:23;102331.72;;;15.11;31.56
31299;BME280;17927;52.350;13.402;2023-04-04T12:52:51;102321.63;;;15.23;31.96
31299;BME280;17927;52.350;13.402;2023-04-04T12:55:19;102315.13;;;15.45;32.08
31299;BME280;17927;52.350;13.402;2023-04-04T12:57:46;102315.91;;;15.67;31.90
31299;BME280;17927;52.350;13.402;2023-04-04T13:00:12;102314.66;;;15.81;31.72
31299;BME280;17927;52.350;13.402;2023-04-04T13:02:42;102302.38;;;15.87;30.98
31299;BME280;17927;52.350;13.402;2023-04-04T13:05:09;102309.69;;;15.86;30.56
31299;BME280;17927;52.350;13.402;2023-04-04T13:07:36;102311.06;;;15.80;30.22